Airfield :
LOGIN :

Register | Disclaimer

   EN    FR    IT 

 










Legend :    VFR   Marginal VFR   IFR   Intensive IFR   Very Intensive IFR
Visi :
Ceiling :
>= 8 km
>= 3000ft
5 to 8 km
1000 to 3000 ft
1500m to 5 km
500 to 1000 ft
800 to 1500m
200 to 500 ft
< 800m
< 200 ft
Symbols :   Thunderstorms  Fog  Heavy snow  Heavy precipitations  Wind > 20 kt
SIGMETs :     Misc.  Thunderstorms  Icing  Turbulence  Mountain Waves  Volcanic Ashes






- Airport Elevation : 26 ft
- IATA code : BIA


LFKB - Bastia

CURRENT METAR :
  • 010330Z AUTO 23004KT 9999 BKN030 06/03 Q1027 NOSIG

EXPIRED METARs :
  • 010300Z AUTO 23005KT 9999 BKN030 06/04 Q1027 NOSIG
  • 010230Z AUTO 23005KT 9999 BKN028 06/04 Q1027 NOSIG
  • 010200Z AUTO VRB02KT 9999 BKN026 06/03 Q1027 NOSIG
  • 010130Z AUTO 30007KT 9999 FEW021 ///// Q1027 NOSIG
  • 010100Z AUTO 26006KT CAVOK 06/04 Q1027 NOSIG

TAF TAF LFKB
Valid from the 01 at 03:00 until the 02 at 03:00 UTC


010200Z 0103/0203 23004KT 9999 FEW025 TX15/0112Z TN05/0103Z
BECMG 0109/0111 12010KT
BECMG 0116/0118 23003KT
ATIS : +33 4 95 59 19 40



MET'MAP, your aeronautical weather chart ! - Copyright ORBIFLY December 2007 - Disclaimer

ORBIFLY MET'MAP TEAM :

Programming & Development : Alexandra Zaïnal
Concept & original design : Baudouin d'Aumeries
Assistance for programming : Marc-Olivier Méhu
Technical & hardware support : Manuel Goepfert

Contact : metmap@orbifly.com




SOURCES & CREDITS :

   NOAA